Time;durP1;ratioP1;P1;durP2;ratioP2;P2;SDS_P1;SDS_P2;PMS_P1;PMS_P2;Temp;Humidity;BMP_temperature;BMP_pressure;BME280_temperature;BME280_humidity;BME280_pressure;Samples;Min_cycle;Max_cycle;Signal;HPM_P1;HPM_P2
2022/05/17 00:01:57;;;;;;;1.90;1.80;;;17.00;99.90;;;;;;5003471;28;20459;-54
2022/05/17 00:04:25;;;;;;;3.07;2.20;;;17.00;99.90;;;;;;5010076;28;20522;-53
2022/05/17 00:06:52;;;;;;;3.57;2.20;;;17.00;99.90;;;;;;5007770;28;20555;-52
2022/05/17 00:09:19;;;;;;;4.80;2.10;;;16.90;99.90;;;;;;5008160;28;20593;-52
2022/05/17 00:11:45;;;;;;;4.73;2.40;;;16.90;99.90;;;;;;5011139;28;20546;-53
2022/05/17 00:14:13;;;;;;;5.77;2.30;;;16.90;99.90;;;;;;5009509;28;20925;-52
2022/05/17 00:16:40;;;;;;;2.37;2.13;;;16.90;99.90;;;;;;5009594;28;20543;-51
2022/05/17 00:19:08;;;;;;;3.67;2.40;;;16.90;99.90;;;;;;5008688;28;20523;-53
2022/05/17 00:21:37;;;;;;;12.80;2.70;;;16.90;99.90;;;;;;5008442;28;20472;-52
2022/05/17 00:24:04;;;;;;;3.23;2.27;;;16.90;99.90;;;;;;5006156;28;21099;-52
2022/05/17 00:26:33;;;;;;;1.80;1.70;;;16.90;99.90;;;;;;5009290;28;20495;-52
2022/05/17 00:29:00;;;;;;;6.53;2.67;;;16.80;99.90;;;;;;5007309;28;20491;-53
2022/05/17 00:31:26;;;;;;;3.90;1.97;;;16.80;99.90;;;;;;5002711;28;20555;-52
2022/05/17 00:33:53;;;;;;;4.50;2.27;;;16.80;99.90;;;;;;5008364;28;20547;-52
2022/05/17 00:36:20;;;;;;;7.03;2.77;;;16.80;99.90;;;;;;5015965;28;20464;-52
2022/05/17 00:38:48;;;;;;;7.70;2.40;;;16.70;99.90;;;;;;5004632;28;20566;-52
2022/05/17 00:41:15;;;;;;;3.87;2.33;;;16.70;99.90;;;;;;5010057;28;20546;-53
2022/05/17 00:46:31;;;;;;;4.00;2.10;;;16.70;99.90;;;;;;5008655;28;20870;-53
2022/05/17 00:48:58;;;;;;;2.80;2.13;;;16.70;99.90;;;;;;5007200;28;20467;-52
2022/05/17 00:51:27;;;;;;;3.87;2.60;;;16.70;99.90;;;;;;5005464;28;21029;-52
2022/05/17 00:54:02;;;;;;;8.13;2.80;;;16.70;99.90;;;;;;5003388;28;20558;-53
2022/05/17 00:56:29;;;;;;;2.63;2.10;;;16.60;99.90;;;;;;5005396;28;20609;-53
2022/05/17 00:58:59;;;;;;;5.37;2.10;;;16.60;99.90;;;;;;5004986;28;20578;-52
2022/05/17 01:01:29;;;;;;;2.47;2.27;;;16.60;99.90;;;;;;5006738;28;20559;-52
2022/05/17 01:03:59;;;;;;;7.13;2.30;;;16.60;99.90;;;;;;5007526;28;21028;-53
2022/05/17 01:06:28;;;;;;;2.60;2.20;;;16.60;99.90;;;;;;5007689;28;20456;-53
2022/05/17 01:08:56;;;;;;;3.63;2.00;;;16.50;99.90;;;;;;5005875;28;20538;-53
2022/05/17 01:11:22;;;;;;;2.70;2.37;;;16.50;99.90;;;;;;5006103;28;20546;-53
2022/05/17 01:16:34;;;;;;;4.83;2.97;;;16.50;99.90;;;;;;5007183;28;20458;-52
2022/05/17 01:19:01;;;;;;;6.93;2.53;;;16.50;99.90;;;;;;5004076;28;20587;-53
2022/05/17 01:21:28;;;;;;;2.90;2.20;;;16.40;99.90;;;;;;5007920;28;20949;-52
2022/05/17 01:23:55;;;;;;;2.67;2.27;;;16.40;99.90;;;;;;5006509;28;20562;-52
2022/05/17 01:26:26;;;;;;;5.70;1.97;;;16.40;99.90;;;;;;5008756;28;20567;-52
2022/05/17 01:28:53;;;;;;;2.70;2.47;;;16.30;99.90;;;;;;5008038;28;20556;-53
2022/05/17 01:31:21;;;;;;;6.23;2.67;;;16.30;99.90;;;;;;5006999;28;20546;-52
2022/05/17 01:33:48;;;;;;;2.73;2.40;;;16.30;99.90;;;;;;5007914;28;20495;-52
2022/05/17 01:36:21;;;;;;;2.67;2.47;;;16.30;99.90;;;;;;5007732;28;20551;-53
2022/05/17 01:38:50;;;;;;;7.70;3.00;;;16.30;99.90;;;;;;5008312;28;21009;-53
2022/05/17 01:41:18;;;;;;;3.13;2.33;;;16.30;99.90;;;;;;5013295;28;20506;-53
2022/05/17 01:43:44;;;;;;;3.80;2.20;;;16.20;99.90;;;;;;5009216;28;20562;-51
2022/05/17 01:46:12;;;;;;;7.90;2.77;;;16.30;99.90;;;;;;5010872;28;20923;-53
2022/05/17 01:48:39;;;;;;;3.70;2.20;;;16.20;99.90;;;;;;5012806;28;20878;-52
2022/05/17 01:51:07;;;;;;;4.20;2.47;;;16.20;99.90;;;;;;5012318;28;20564;-53
2022/05/17 01:53:35;;;;;;;3.20;2.27;;;16.10;99.90;;;;;;5009849;28;20550;-53
2022/05/17 01:56:03;;;;;;;5.40;2.13;;;16.20;99.90;;;;;;5009364;28;20577;-53
2022/05/17 01:58:30;;;;;;;3.60;2.77;;;16.20;99.90;;;;;;5011454;28;20932;-53
2022/05/17 02:00:57;;;;;;;2.23;2.00;;;16.10;99.90;;;;;;5001070;28;20547;-52
2022/05/17 02:03:23;;;;;;;3.97;2.37;;;16.00;99.90;;;;;;5026393;23;20574;-49
2022/05/17 02:05:50;;;;;;;5.67;3.10;;;16.00;99.90;;;;;;5009710;28;20491;-49
2022/05/17 02:08:17;;;;;;;3.33;2.13;;;15.90;99.90;;;;;;5012572;28;20482;-49
2022/05/17 02:10:43;;;;;;;3.63;2.40;;;15.90;99.90;;;;;;5010350;28;20498;-48
2022/05/17 02:13:11;;;;;;;3.37;2.70;;;15.80;99.90;;;;;;4993866;28;20579;-49
2022/05/17 02:15:38;;;;;;;3.27;2.60;;;15.80;99.90;;;;;;4996087;28;20901;-48
2022/05/17 02:18:05;;;;;;;6.23;2.67;;;15.70;99.90;;;;;;4991939;28;20913;-49
2022/05/17 02:20:32;;;;;;;4.60;2.57;;;15.70;99.90;;;;;;4993540;28;20970;-49
2022/05/17 02:23:00;;;;;;;4.83;2.57;;;15.60;86.80;;;;;;4991692;28;20559;-50
2022/05/17 02:25:27;;;;;;;3.07;1.93;;;15.50;85.20;;;;;;4990315;28;20835;-49
2022/05/17 02:27:53;;;;;;;5.00;2.20;;;15.40;94.90;;;;;;4991640;28;20970;-49
2022/05/17 02:30:24;;;;;;;15.40;2.53;;;15.40;88.40;;;;;;4985203;28;20591;-49
2022/05/17 02:32:51;;;;;;;3.90;2.27;;;15.30;69.40;;;;;;4986261;28;20601;-48
2022/05/17 02:35:17;;;;;;;8.30;2.53;;;15.30;65.40;;;;;;4991547;28;20547;-48
2022/05/17 02:37:44;;;;;;;5.53;3.30;;;15.20;63.70;;;;;;4986432;28;20556;-49
2022/05/17 02:40:11;;;;;;;2.83;2.63;;;15.20;54.30;;;;;;4992357;28;20563;-49
2022/05/17 02:42:38;;;;;;;7.07;2.80;;;15.20;39.10;;;;;;4989074;28;20587;-49
2022/05/17 02:45:06;;;;;;;6.27;2.73;;;15.10;36.90;;;;;;4990601;28;20974;-49
2022/05/17 02:47:34;;;;;;;4.27;2.90;;;15.10;31.90;;;;;;4993803;28;20459;-48
2022/05/17 02:50:01;;;;;;;2.83;2.27;;;15.10;31.40;;;;;;4986639;28;20580;-50
2022/05/17 02:52:28;;;;;;;7.03;2.73;;;15.10;26.50;;;;;;4987738;28;20926;-49
2022/05/17 02:54:54;;;;;;;4.70;2.90;;;15.10;25.70;;;;;;4988586;28;21391;-49
2022/05/17 02:57:21;;;;;;;2.60;2.40;;;15.10;87.60;;;;;;4988212;28;20557;-49
2022/05/17 02:59:48;;;;;;;4.20;2.80;;;15.00;99.90;;;;;;4997970;28;20575;-49
2022/05/17 03:02:14;;;;;;;5.50;3.27;;;15.00;99.90;;;;;;4986268;28;20919;-49
2022/05/17 03:04:42;;;;;;;6.60;2.90;;;15.00;99.90;;;;;;4987667;28;20588;-49
2022/05/17 03:07:09;;;;;;;4.53;2.77;;;14.90;99.90;;;;;;4990585;28;20560;-48
2022/05/17 03:09:35;;;;;;;4.43;2.87;;;14.90;99.90;;;;;;4989423;28;20545;-49
2022/05/17 03:12:03;;;;;;;3.87;3.00;;;14.90;99.90;;;;;;4989741;28;20568;-49
2022/05/17 03:14:30;;;;;;;4.67;3.03;;;14.80;99.90;;;;;;4989155;28;21257;-49
2022/05/17 03:16:57;;;;;;;21.30;2.73;;;14.70;99.90;;;;;;4990829;28;20547;-49
2022/05/17 03:19:24;;;;;;;4.67;2.80;;;14.70;99.90;;;;;;4988519;28;20588;-49
2022/05/17 03:21:52;;;;;;;3.53;2.77;;;14.70;99.90;;;;;;4984436;28;20564;-48
2022/05/17 03:24:18;;;;;;;4.80;3.03;;;14.60;99.90;;;;;;4992782;28;20487;-49
2022/05/17 03:26:45;;;;;;;5.93;2.90;;;14.50;99.90;;;;;;4987105;28;20554;-49
2022/05/17 03:29:11;;;;;;;4.03;2.40;;;14.50;99.90;;;;;;4981520;28;20601;-49
2022/05/17 03:31:38;;;;;;;5.97;3.23;;;14.50;99.90;;;;;;4983632;28;20586;-48
2022/05/17 03:34:04;;;;;;;3.10;2.80;;;14.40;99.90;;;;;;4984927;28;20492;-48
2022/05/17 03:36:31;;;;;;;10.00;3.50;;;14.30;99.90;;;;;;4989463;28;20556;-48
2022/05/17 03:38:58;;;;;;;6.63;3.83;;;14.30;94.60;;;;;;4980518;28;21608;-48
2022/05/17 03:41:25;;;;;;;11.80;3.50;;;14.30;82.50;;;;;;4985216;28;20551;-48
2022/05/17 03:43:52;;;;;;;4.40;2.93;;;14.30;81.10;;;;;;4990656;28;20546;-48
2022/05/17 03:46:20;;;;;;;5.90;3.63;;;14.20;99.90;;;;;;4992784;28;20488;-49
2022/05/17 03:48:47;;;;;;;6.47;3.13;;;14.20;99.50;;;;;;4987376;28;20936;-49
2022/05/17 03:51:15;;;;;;;16.33;3.87;;;14.20;83.70;;;;;;4979486;28;20555;-49
2022/05/17 03:53:42;;;;;;;5.77;3.40;;;14.20;84.50;;;;;;4993406;28;20556;-49
2022/05/17 03:56:10;;;;;;;6.83;3.00;;;14.20;82.60;;;;;;4985029;28;20556;-49
2022/05/17 03:58:37;;;;;;;7.93;3.40;;;14.20;79.20;;;;;;4988361;28;20480;-49
2022/05/17 04:01:05;;;;;;;6.53;3.10;;;14.20;69.70;;;;;;4989280;28;20460;-49
2022/05/17 04:03:31;;;;;;;3.20;2.90;;;14.20;71.50;;;;;;4987358;28;21496;-49
2022/05/17 04:05:58;;;;;;;6.60;2.77;;;14.20;54.00;;;;;;4988770;28;20526;-49
2022/05/17 04:08:25;;;;;;;3.50;3.20;;;14.20;47.60;;;;;;4987633;28;20527;-49
2022/05/17 04:10:52;;;;;;;3.17;2.90;;;14.10;39.00;;;;;;4989411;28;20568;-49
2022/05/17 04:13:20;;;;;;;5.10;3.57;;;14.10;41.30;;;;;;4984544;28;20575;-49
2022/05/17 04:15:46;;;;;;;5.80;3.77;;;14.00;30.60;;;;;;4989760;28;20468;-48
2022/05/17 04:18:13;;;;;;;3.47;3.17;;;13.90;33.20;;;;;;4983015;28;20555;-50
2022/05/17 04:20:39;;;;;;;7.70;3.80;;;13.80;25.60;;;;;;4983784;28;20572;-49
2022/05/17 04:23:06;;;;;;;5.07;4.27;;;13.80;99.90;;;;;;4988200;28;20580;-49
2022/05/17 04:25:33;;;;;;;4.70;3.80;;;13.80;99.90;;;;;;4989040;28;20555;-49
2022/05/17 04:27:59;;;;;;;9.83;3.40;;;13.80;99.90;;;;;;4988269;28;20548;-49
2022/05/17 04:30:28;;;;;;;5.20;3.73;;;13.80;99.90;;;;;;4990026;28;20553;-49
2022/05/17 04:32:55;;;;;;;4.90;4.27;;;13.80;99.90;;;;;;4989777;28;20489;-50
2022/05/17 04:35:22;;;;;;;5.10;3.60;;;13.80;99.90;;;;;;4990917;28;20468;-49
2022/05/17 04:37:48;;;;;;;6.93;3.90;;;13.80;99.90;;;;;;4988926;28;20559;-50
2022/05/17 04:40:15;;;;;;;5.40;3.83;;;13.80;99.90;;;;;;4991511;28;20588;-50
2022/05/17 04:42:44;;;;;;;11.23;3.90;;;13.80;99.90;;;;;;4991480;28;21017;-50
2022/05/17 04:45:14;;;;;;;5.80;4.00;;;13.80;99.90;;;;;;4991827;28;20886;-50
2022/05/17 04:47:43;;;;;;;6.47;3.80;;;13.70;99.90;;;;;;4993800;28;20460;-50
2022/05/17 04:50:11;;;;;;;12.20;3.90;;;13.70;99.90;;;;;;4991131;28;20488;-49
2022/05/17 04:52:39;;;;;;;5.43;3.87;;;13.70;99.90;;;;;;4988836;28;20565;-49
2022/05/17 04:55:07;;;;;;;4.53;4.03;;;13.60;99.90;;;;;;4987427;28;20551;-50
2022/05/17 04:57:35;;;;;;;7.03;3.83;;;13.60;99.90;;;;;;4987316;28;21095;-49
2022/05/17 05:00:02;;;;;;;6.77;4.17;;;13.70;99.90;;;;;;4994053;28;20488;-49
2022/05/17 05:02:28;;;;;;;5.33;4.10;;;13.70;99.90;;;;;;4986011;28;20596;-49
2022/05/17 05:04:56;;;;;;;7.07;4.40;;;13.70;99.90;;;;;;4983774;28;20563;-49
2022/05/17 05:07:23;;;;;;;7.70;4.20;;;13.70;99.90;;;;;;4988531;28;20994;-49
2022/05/17 05:09:49;;;;;;;13.80;3.57;;;13.70;99.90;;;;;;4980661;28;20845;-48
2022/05/17 05:12:16;;;;;;;5.70;4.40;;;13.70;99.90;;;;;;4984479;28;20488;-49
2022/05/17 05:14:42;;;;;;;9.47;4.03;;;13.70;99.90;;;;;;4977586;28;20582;-49
2022/05/17 05:17:10;;;;;;;9.93;3.67;;;13.70;99.90;;;;;;4986585;28;20503;-48
2022/05/17 05:19:36;;;;;;;7.27;4.30;;;13.70;99.90;;;;;;4987429;28;20552;-48
2022/05/17 05:22:05;;;;;;;8.43;4.30;;;13.70;94.20;;;;;;4995889;28;20527;-49
2022/05/17 05:24:32;;;;;;;5.10;4.20;;;13.70;88.30;;;;;;4987410;28;20547;-48
2022/05/17 05:26:58;;;;;;;5.37;3.87;;;13.70;81.40;;;;;;4990081;28;21013;-49
2022/05/17 05:29:25;;;;;;;4.57;4.10;;;13.70;77.10;;;;;;4986002;28;20543;-49
2022/05/17 05:31:52;;;;;;;7.63;4.20;;;13.70;72.20;;;;;;4985674;28;21081;-49
2022/05/17 05:34:18;;;;;;;8.93;3.60;;;13.70;70.90;;;;;;4986247;28;20552;-49
2022/05/17 05:36:46;;;;;;;5.73;4.10;;;13.70;69.70;;;;;;4988067;28;20553;-49
2022/05/17 05:39:15;;;;;;;10.67;4.90;;;13.70;67.20;;;;;;4987907;28;20487;-49
2022/05/17 05:41:42;;;;;;;7.70;4.30;;;13.70;65.20;;;;;;4985762;28;20484;-49
2022/05/17 05:44:08;;;;;;;8.63;4.30;;;13.70;63.00;;;;;;4988541;28;20966;-49
2022/05/17 05:46:35;;;;;;;8.90;4.83;;;13.70;64.00;;;;;;4983271;28;20944;-47
2022/05/17 05:49:01;;;;;;;10.67;5.03;;;13.70;68.10;;;;;;4991885;28;20551;-50
2022/05/17 05:51:28;;;;;;;9.80;4.90;;;13.60;70.30;;;;;;4991366;28;20568;-48
2022/05/17 05:53:54;;;;;;;8.27;4.37;;;13.60;76.40;;;;;;4980001;28;20551;-48
2022/05/17 05:56:23;;;;;;;5.23;4.10;;;13.50;82.30;;;;;;4989187;28;21827;-49
2022/05/17 05:58:50;;;;;;;5.37;4.10;;;13.50;78.00;;;;;;4979272;28;20539;-49
2022/05/17 06:01:17;;;;;;;8.50;5.50;;;13.70;69.00;;;;;;4983072;28;20469;-49
2022/05/17 06:03:43;;;;;;;9.17;4.60;;;13.70;62.50;;;;;;4988679;28;20468;-50
2022/05/17 06:06:10;;;;;;;7.53;4.30;;;13.70;57.60;;;;;;4983194;28;20543;-49
2022/05/17 06:08:37;;;;;;;7.43;5.00;;;13.70;58.70;;;;;;4983907;28;20583;-49
2022/05/17 06:11:04;;;;;;;12.67;5.27;;;13.80;53.20;;;;;;4989570;28;20645;-48
2022/05/17 06:13:32;;;;;;;8.70;5.10;;;13.80;56.40;;;;;;4986911;28;20547;-50
2022/05/17 06:15:59;;;;;;;15.60;5.63;;;13.80;57.60;;;;;;4992536;28;20487;-49
2022/05/17 06:18:26;;;;;;;15.37;5.90;;;13.80;57.00;;;;;;4985029;28;20551;-49
2022/05/17 06:20:55;;;;;;;9.00;5.10;;;13.80;56.90;;;;;;4988559;28;20489;-49
2022/05/17 06:23:22;;;;;;;8.17;5.80;;;13.80;63.20;;;;;;4989115;28;20905;-49
2022/05/17 06:25:49;;;;;;;16.57;5.70;;;13.90;59.40;;;;;;4991573;28;20465;-49
2022/05/17 06:28:16;;;;;;;19.90;6.40;;;13.90;63.30;;;;;;4992614;28;20466;-49
2022/05/17 06:30:44;;;;;;;12.70;5.83;;;13.90;70.30;;;;;;4981871;28;20557;-49
2022/05/17 06:33:12;;;;;;;12.47;6.27;;;13.90;71.10;;;;;;4985600;28;20927;-49
2022/05/17 06:35:41;;;;;;;18.80;8.43;;;14.00;66.70;;;;;;4990729;28;20463;-48
2022/05/17 06:38:08;;;;;;;14.33;4.87;;;14.10;66.00;;;;;;4982861;28;20537;-49
2022/05/17 06:40:36;;;;;;;6.20;4.57;;;14.00;96.70;;;;;;4992606;28;20480;-49
2022/05/17 06:43:03;;;;;;;16.00;5.10;;;14.00;99.90;;;;;;4993580;28;20650;-49
2022/05/17 06:45:30;;;;;;;8.20;5.13;;;14.10;99.90;;;;;;4990962;28;20555;-47
2022/05/17 06:47:58;;;;;;;5.77;4.93;;;14.10;99.90;;;;;;4987534;28;20535;-49
2022/05/17 06:50:25;;;;;;;6.20;4.30;;;14.10;99.90;;;;;;4985488;28;20465;-48
2022/05/17 06:52:51;;;;;;;11.33;4.43;;;14.20;99.90;;;;;;4982518;28;20589;-49
2022/05/17 06:55:18;;;;;;;6.07;4.10;;;14.40;99.90;;;;;;4986074;28;20543;-48
2022/05/17 06:57:44;;;;;;;7.60;5.07;;;14.50;99.90;;;;;;4988467;28;20536;-49
2022/05/17 07:00:14;;;;;;;6.80;4.30;;;14.60;99.90;;;;;;4984772;28;20580;-49
2022/05/17 07:02:41;;;;;;;8.10;4.47;;;14.70;28.30;;;;;;4981653;28;20534;-48
2022/05/17 07:05:10;;;;;;;4.47;4.07;;;14.80;99.90;;;;;;4992411;28;20569;-48
2022/05/17 07:07:37;;;;;;;6.67;4.83;;;14.90;99.90;;;;;;4990021;28;20460;-48
2022/05/17 07:15:33;;;;;;;7.57;4.43;;;14.90;34.80;;;;;;4991150;28;20493;-48
2022/05/17 07:18:00;;;;;;;7.63;5.13;;;15.00;26.90;;;;;;4988196;28;20464;-49
2022/05/17 07:20:28;;;;;;;8.77;5.07;;;15.00;21.40;;;;;;4985540;28;20622;-48
2022/05/17 07:22:55;;;;;;;8.27;5.03;;;15.10;94.30;;;;;;4984798;28;20472;-51
2022/05/17 07:25:21;;;;;;;6.50;4.50;;;15.20;99.90;;;;;;4987410;28;21144;-48
2022/05/17 07:27:48;;;;;;;9.90;5.00;;;15.30;99.90;;;;;;4988316;28;20507;-49
2022/05/17 07:30:14;;;;;;;9.70;5.43;;;15.30;25.10;;;;;;4983939;28;20540;-48
2022/05/17 07:32:41;;;;;;;10.83;4.00;;;15.40;28.80;;;;;;4988662;28;20567;-49
2022/05/17 07:35:08;;;;;;;12.33;4.53;;;15.50;61.20;;;;;;4997643;28;20500;-50
2022/05/17 07:37:36;;;;;;;10.80;5.90;;;15.60;38.40;;;;;;4991646;28;20532;-49
2022/05/17 07:40:04;;;;;;;12.27;5.33;;;15.60;99.00;;;;;;4986407;28;20567;-48
2022/05/17 07:42:31;;;;;;;7.33;4.30;;;15.70;84.00;;;;;;4989070;28;20531;-49
2022/05/17 07:44:58;;;;;;;14.70;4.70;;;15.60;99.90;;;;;;4988736;28;20472;-48
2022/05/17 07:47:25;;;;;;;7.13;4.60;;;15.70;82.70;;;;;;4989102;28;20500;-49
2022/05/17 07:49:51;;;;;;;7.10;4.90;;;15.70;99.30;;;;;;4991731;28;20475;-49
2022/05/17 07:52:18;;;;;;;8.77;5.00;;;15.80;99.90;;;;;;4984456;28;21093;-48
2022/05/17 07:54:46;;;;;;;8.33;4.67;;;15.90;99.90;;;;;;4987568;28;20880;-48
2022/05/17 07:57:12;;;;;;;12.10;4.90;;;15.90;86.30;;;;;;4992957;28;20547;-49
2022/05/17 07:59:39;;;;;;;12.70;4.90;;;15.90;90.10;;;;;;4989324;28;20572;-48
2022/05/17 08:02:06;;;;;;;7.47;4.33;;;15.90;99.90;;;;;;4982685;28;20476;-51
2022/05/17 08:04:33;;;;;;;14.40;5.07;;;16.00;99.90;;;;;;4996295;28;20460;-51
2022/05/17 08:07:00;;;;;;;10.73;5.57;;;16.00;99.90;;;;;;4987381;28;20456;-52
2022/05/17 08:09:27;;;;;;;7.90;4.73;;;16.00;99.90;;;;;;4991988;28;20488;-53
2022/05/17 08:11:55;;;;;;;8.57;5.33;;;16.10;99.90;;;;;;4987545;28;20851;-52
2022/05/17 08:14:22;;;;;;;12.43;5.00;;;16.30;99.90;;;;;;4991272;28;20555;-51
2022/05/17 08:16:49;;;;;;;7.23;5.07;;;16.50;99.90;;;;;;4991718;28;20519;-52
2022/05/17 08:19:15;;;;;;;6.87;4.53;;;16.60;99.90;;;;;;4988682;28;20908;-52
2022/05/17 08:21:42;;;;;;;15.47;5.60;;;16.70;99.90;;;;;;4990780;28;21001;-52
2022/05/17 08:24:09;;;;;;;8.33;5.23;;;16.70;99.90;;;;;;4985767;28;20515;-52
2022/05/17 08:29:21;;;;;;;6.70;4.73;;;16.80;99.90;;;;;;4985731;28;20510;-52
2022/05/17 08:33:14;;;;;;;9.67;7.10;;;16.80;99.90;;;;;;4991671;28;20515;-52
2022/05/17 08:34:34;;;;;;;11.97;5.30;;;16.80;99.90;;;;;;4992063;28;20543;-52
2022/05/17 08:37:01;;;;;;;10.37;4.50;;;16.90;99.90;;;;;;4991766;28;20476;-52
2022/05/17 08:39:28;;;;;;;7.67;5.00;;;16.90;99.90;;;;;;4990535;28;20547;-53
2022/05/17 08:42:00;;;;;;;8.53;4.63;;;16.90;99.90;;;;;;4991527;28;20473;-52
2022/05/17 08:44:42;;;;;;;9.73;5.87;;;17.00;99.90;;;;;;4991960;28;20894;-52
2022/05/17 08:47:12;;;;;;;8.83;4.70;;;17.10;99.90;;;;;;4991552;28;20475;-52
2022/05/17 08:49:44;;;;;;;9.30;4.43;;;17.20;99.90;;;;;;4984170;28;20489;-53
2022/05/17 08:52:14;;;;;;;14.27;6.63;;;17.30;99.90;;;;;;4988537;28;20499;-52
2022/05/17 08:54:51;;;;;;;11.60;5.27;;;17.40;99.90;;;;;;4996066;28;20465;-51
2022/05/17 08:57:25;;;;;;;5.40;4.27;;;17.60;99.90;;;;;;4995306;28;20962;-53
2022/05/17 08:59:53;;;;;;;8.83;5.43;;;17.60;99.90;;;;;;4996384;28;20476;-52
2022/05/17 09:02:26;;;;;;;9.43;4.60;;;17.80;99.90;;;;;;4995057;28;21064;-53
2022/05/17 09:05:02;;;;;;;7.47;4.23;;;17.80;99.90;;;;;;4990687;28;21022;-52
2022/05/17 09:07:35;;;;;;;7.80;4.70;;;17.80;99.90;;;;;;4995440;28;20546;-52
2022/05/17 09:10:05;;;;;;;5.70;3.87;;;17.80;99.90;;;;;;4995779;28;20555;-52
2022/05/17 09:12:39;;;;;;;7.73;4.43;;;17.80;99.90;;;;;;4994325;28;20485;-53
2022/05/17 09:15:10;;;;;;;10.20;5.17;;;17.70;99.90;;;;;;4987493;28;20479;-52
2022/05/17 09:17:37;;;;;;;6.90;5.40;;;17.70;99.90;;;;;;4994520;28;20487;-53
2022/05/17 09:20:05;;;;;;;7.03;5.10;;;17.70;99.90;;;;;;4996029;28;20570;-53
2022/05/17 09:22:32;;;;;;;12.37;5.30;;;17.60;99.90;;;;;;4995341;28;20547;-52
2022/05/17 09:25:01;;;;;;;19.60;5.73;;;17.60;99.90;;;;;;4995721;28;20460;-53
2022/05/17 09:27:30;;;;;;;13.57;4.27;;;17.60;99.90;;;;;;4986824;28;20506;-53
2022/05/17 09:30:05;;;;;;;9.33;4.60;;;17.70;99.90;;;;;;4994822;28;20515;-53
2022/05/17 09:32:35;;;;;;;8.83;4.77;;;17.70;99.90;;;;;;4994973;28;20550;-52
2022/05/17 09:35:08;;;;;;;12.57;5.03;;;17.70;99.90;;;;;;4995565;28;20997;-53
2022/05/17 09:37:41;;;;;;;5.50;4.30;;;17.80;99.90;;;;;;4994549;28;20547;-52
2022/05/17 09:40:11;;;;;;;4.03;3.50;;;17.90;99.90;;;;;;4981117;28;20503;-53
2022/05/17 09:42:44;;;;;;;10.23;4.90;;;18.00;99.90;;;;;;4994903;28;20547;-53
2022/05/17 09:45:15;;;;;;;6.70;4.23;;;18.00;99.90;;;;;;4993949;28;21103;-52
2022/05/17 09:47:56;;;;;;;8.50;4.10;;;18.10;34.50;;;;;;4994749;28;20467;-52
2022/05/17 09:53:11;;;;;;;5.23;4.20;;;18.20;58.90;;;;;;4992377;28;20478;-53
2022/05/17 09:55:40;;;;;;;7.60;4.37;;;18.30;48.40;;;;;;4991076;28;20463;-51
2022/05/17 09:58:09;;;;;;;6.07;4.47;;;18.40;43.40;;;;;;4987899;28;20471;-52
2022/05/17 10:00:41;;;;;;;5.73;3.53;;;18.50;40.90;;;;;;4985222;28;20596;-52
2022/05/17 10:03:29;;;;;;;5.93;3.80;;;18.60;34.80;;;;;;4991616;28;20491;-52
2022/05/17 10:05:58;;;;;;;13.13;4.77;;;18.60;60.70;;;;;;4992021;28;20476;-52
2022/05/17 10:08:40;;;;;;;19.13;4.87;;;18.60;64.00;;;;;;4998325;28;20480;-51
2022/05/17 10:11:16;;;;;;;7.97;5.93;;;18.60;40.50;;;;;;4987882;28;20868;-52
2022/05/17 10:14:09;;;;;;;6.83;4.40;;;18.50;40.50;;;;;;4990512;28;20543;-52
2022/05/17 10:16:43;;;;;;;8.10;3.70;;;18.50;56.80;;;;;;4992987;28;20863;-52
2022/05/17 10:19:26;;;;;;;10.80;4.40;;;18.50;54.30;;;;;;4992010;28;20839;-51
2022/05/17 10:21:59;;;;;;;7.57;3.90;;;18.50;45.40;;;;;;4990051;28;20488;-52
2022/05/17 10:24:36;;;;;;;4.57;4.17;;;18.40;55.70;;;;;;4991662;28;20552;-52
2022/05/17 10:27:09;;;;;;;4.97;4.27;;;18.40;63.10;;;;;;4990780;28;20464;-52
2022/05/17 10:29:45;;;;;;;6.70;4.07;;;18.40;60.90;;;;;;4994742;28;20437;-52
2022/05/17 10:32:20;;;;;;;6.70;4.00;;;18.40;63.20;;;;;;4997647;28;20534;-52
2022/05/17 10:34:53;;;;;;;7.73;4.60;;;18.50;62.20;;;;;;4993338;28;20480;-52
2022/05/17 10:37:24;;;;;;;6.70;3.70;;;18.50;48.80;;;;;;4993579;28;20500;-52
2022/05/17 10:39:55;;;;;;;9.70;4.57;;;18.50;45.10;;;;;;4992416;28;20480;-53
2022/05/17 10:42:24;;;;;;;15.70;8.00;;;18.50;58.50;;;;;;4987475;28;20513;-52
2022/05/17 10:44:53;;;;;;;14.67;6.30;;;18.50;50.90;;;;;;4991268;28;20460;-52
2022/05/17 10:47:28;;;;;;;19.67;7.80;;;18.60;52.60;;;;;;5001720;28;20500;-52
2022/05/17 10:50:14;;;;;;;15.37;5.23;;;18.60;48.80;;;;;;4991457;28;20961;-52
2022/05/17 10:52:51;;;;;;;7.00;4.57;;;18.60;65.80;;;;;;4992421;28;20567;-52
2022/05/17 10:55:24;;;;;;;9.10;5.83;;;18.70;75.40;;;;;;4993370;28;20496;-52
2022/05/17 10:57:57;;;;;;;19.57;10.10;;;18.60;81.30;;;;;;4991776;28;20559;-52
2022/05/17 11:00:31;;;;;;;12.27;5.60;;;18.70;70.10;;;;;;4990496;28;20496;-51
2022/05/17 11:03:34;;;;;;;11.93;5.43;;;18.80;79.40;;;;;;4992092;28;20547;-52
2022/05/17 11:06:13;;;;;;;13.67;5.83;;;18.80;82.70;;;;;;4991392;28;20467;-52
2022/05/17 11:08:47;;;;;;;19.03;5.37;;;18.80;80.20;;;;;;4989419;28;20492;-52
2022/05/17 11:11:28;;;;;;;5.17;4.27;;;18.90;78.30;;;;;;4988413;28;20492;-52
2022/05/17 11:13:59;;;;;;;12.30;4.47;;;18.90;75.30;;;;;;4994531;28;20444;-52
2022/05/17 11:16:33;;;;;;;14.63;4.93;;;18.90;85.40;;;;;;4988871;28;20559;-51
2022/05/17 11:19:05;;;;;;;8.70;3.70;;;18.80;93.30;;;;;;4989982;28;20547;-52
2022/05/17 11:21:38;;;;;;;14.80;4.03;;;18.80;92.60;;;;;;4989537;28;20492;-52
2022/05/17 11:24:17;;;;;;;9.57;3.87;;;18.80;87.10;;;;;;4983631;28;20609;-53
2022/05/17 11:27:09;;;;;;;5.03;3.63;;;18.90;87.70;;;;;;4987257;28;20980;-53
2022/05/17 11:30:03;;;;;;;4.50;3.73;;;19.00;82.80;;;;;;4988889;28;20489;-52
2022/05/17 11:32:32;;;;;;;6.20;3.73;;;19.20;82.80;;;;;;4988957;28;22099;-53
2022/05/17 11:35:02;;;;;;;8.30;5.10;;;19.30;78.90;;;;;;4989230;28;20501;-53
2022/05/17 11:38:00;;;;;;;6.90;4.20;;;19.50;83.40;;;;;;4990764;28;20469;-52
2022/05/17 11:40:56;;;;;;;6.77;4.13;;;19.60;80.80;;;;;;4993253;28;20894;-52
2022/05/17 11:43:42;;;;;;;6.17;4.67;;;19.50;78.00;;;;;;4990739;28;20531;-52
2022/05/17 11:46:44;;;;;;;9.03;4.63;;;19.50;83.80;;;;;;4990314;28;20496;-52
2022/05/17 11:49:45;;;;;;;13.13;5.53;;;19.50;81.30;;;;;;4986237;28;20595;-52
2022/05/17 11:52:27;;;;;;;7.93;4.40;;;19.40;81.00;;;;;;4986535;28;20476;-52
2022/05/17 11:54:56;;;;;;;7.80;4.33;;;19.50;78.40;;;;;;4983819;28;20812;-52
2022/05/17 11:57:58;;;;;;;7.37;4.83;;;19.50;79.60;;;;;;4991005;28;20548;-52
2022/05/17 12:00:43;;;;;;;11.90;4.80;;;19.60;80.30;;;;;;4909908;29;20491;-53
2022/05/17 12:03:36;;;;;;;4.27;3.87;;;19.60;78.90;;;;;;4908746;29;20500;-53
2022/05/17 12:06:02;;;;;;;5.07;4.40;;;19.60;83.90;;;;;;4969469;28;20574;-52
2022/05/17 12:08:32;;;;;;;9.83;5.20;;;19.60;92.80;;;;;;4986369;28;20531;-53
2022/05/17 12:11:08;;;;;;;8.13;4.47;;;19.60;99.90;;;;;;4983835;28;20460;-53
2022/05/17 12:13:40;;;;;;;7.43;4.50;;;19.70;96.90;;;;;;4987274;28;20923;-52
2022/05/17 12:16:09;;;;;;;7.97;4.13;;;19.70;97.00;;;;;;4986335;28;21031;-52
2022/05/17 12:18:43;;;;;;;4.53;3.80;;;19.70;99.90;;;;;;4986616;28;20526;-52
2022/05/17 12:21:31;;;;;;;4.27;3.80;;;19.80;96.60;;;;;;4985633;28;20487;-52
2022/05/17 12:24:05;;;;;;;5.93;4.17;;;19.90;91.00;;;;;;4992976;28;20487;-52
2022/05/17 12:26:46;;;;;;;6.70;4.40;;;19.90;99.90;;;;;;4988197;28;20540;-53
2022/05/17 12:31:59;;;;;;;4.93;3.83;;;19.90;99.90;;;;;;4988941;28;20466;-52
2022/05/17 12:34:26;;;;;;;6.43;4.63;;;19.90;94.30;;;;;;4991015;28;20534;-52
2022/05/17 12:37:07;;;;;;;8.77;5.50;;;20.00;82.90;;;;;;4990916;28;21018;-51
2022/05/17 12:45:13;;;;;;;7.03;4.60;;;20.10;99.90;;;;;;4989358;28;22459;-52
2022/05/17 12:47:44;;;;;;;5.20;4.43;;;20.10;99.90;;;;;;4999749;28;20464;-53
2022/05/17 12:50:17;;;;;;;5.63;4.73;;;20.20;99.90;;;;;;4987127;28;20870;-52
2022/05/17 12:52:46;;;;;;;6.90;4.10;;;20.10;99.90;;;;;;4988735;28;20515;-52
2022/05/17 12:55:19;;;;;;;13.13;5.20;;;20.10;99.90;;;;;;4991163;28;20465;-53
2022/05/17 12:57:47;;;;;;;9.50;4.50;;;20.00;99.90;;;;;;4990658;28;20477;-52
2022/05/17 13:00:17;;;;;;;11.67;3.97;;;20.10;99.90;;;;;;4983136;28;20503;-52
2022/05/17 13:02:46;;;;;;;7.40;4.23;;;20.10;99.90;;;;;;4991260;28;20488;-52
2022/05/17 13:05:28;;;;;;;4.80;3.90;;;20.20;99.90;;;;;;4992395;28;20501;-52
2022/05/17 13:08:02;;;;;;;7.27;4.03;;;20.20;99.90;;;;;;4987619;28;20539;-57
2022/05/17 13:10:29;;;;;;;18.33;4.27;;;20.40;99.90;;;;;;4990794;28;20543;-52
2022/05/17 13:12:57;;;;;;;4.73;3.60;;;20.40;99.90;;;;;;4984211;28;20566;-53
2022/05/17 13:15:24;;;;;;;5.53;4.37;;;20.50;99.90;;;;;;4983732;28;20844;-52
2022/05/17 13:17:56;;;;;;;9.00;3.57;;;20.60;99.90;;;;;;4984368;28;20460;-52
2022/05/17 13:20:25;;;;;;;5.47;4.33;;;20.60;99.90;;;;;;4989681;28;20555;-53
2022/05/17 13:22:54;;;;;;;6.03;4.20;;;20.60;99.90;;;;;;4987108;28;20946;-53
2022/05/17 13:25:23;;;;;;;12.13;5.13;;;20.60;99.90;;;;;;4985618;28;20472;-53